sensor_id;sensor_type;location;lat;lon;timestamp;noise_LAeq;noise_LA_min;noise_LA_max;noise_LA01;noise_LA95
78837;Laerm;72468;51.680;5.976;2024-01-11T00:00:56;32.38;31.88;32.88;;
78837;Laerm;72468;51.680;5.976;2024-01-11T00:04:56;32.44;31.6;37;;
78837;Laerm;72468;51.680;5.976;2024-01-11T00:08:56;32.37;31.82;33.55;;
78837;Laerm;72468;51.680;5.976;2024-01-11T00:12:56;32.37;31.81;32.93;;
78837;Laerm;72468;51.680;5.976;2024-01-11T00:16:56;32.35;31.79;32.83;;
78837;Laerm;72468;51.680;5.976;2024-01-11T00:20:56;32.37;30.82;34.47;;
78837;Laerm;72468;51.680;5.976;2024-01-11T00:24:56;32.5;29.77;38.79;;
78837;Laerm;72468;51.680;5.976;2024-01-11T00:28:56;32.36;31.77;32.93;;
78837;Laerm;72468;51.680;5.976;2024-01-11T00:32:56;32.36;31.85;32.79;;
78837;Laerm;72468;51.680;5.976;2024-01-11T00:36:56;32.37;31.9;32.83;;
78837;Laerm;72468;51.680;5.976;2024-01-11T00:40:56;32.38;31.88;32.93;;
78837;Laerm;72468;51.680;5.976;2024-01-11T00:44:56;32.38;31.84;32.89;;
78837;Laerm;72468;51.680;5.976;2024-01-11T00:48:56;32.36;31.79;32.88;;
78837;Laerm;72468;51.680;5.976;2024-01-11T00:52:56;32.36;31.83;33;;
78837;Laerm;72468;51.680;5.976;2024-01-11T00:56:56;32.37;31.93;32.9;;
78837;Laerm;72468;51.680;5.976;2024-01-11T01:00:56;32.35;31.74;32.85;;
78837;Laerm;72468;51.680;5.976;2024-01-11T01:04:56;32.35;31.87;32.87;;
78837;Laerm;72468;51.680;5.976;2024-01-11T01:08:56;32.36;31.77;32.89;;
78837;Laerm;72468;51.680;5.976;2024-01-11T01:12:56;32.37;31.72;32.93;;
78837;Laerm;72468;51.680;5.976;2024-01-11T01:16:56;32.37;31.72;32.9;;
78837;Laerm;72468;51.680;5.976;2024-01-11T01:20:56;32.38;31.76;32.88;;
78837;Laerm;72468;51.680;5.976;2024-01-11T01:24:56;32.38;31.88;33;;
78837;Laerm;72468;51.680;5.976;2024-01-11T01:28:56;32.4;31.81;32.88;;
78837;Laerm;72468;51.680;5.976;2024-01-11T01:32:58;32.5;31.33;37.79;;
78837;Laerm;72468;51.680;5.976;2024-01-11T01:36:56;32.42;31.78;32.99;;
78837;Laerm;72468;51.680;5.976;2024-01-11T01:40:56;32.4;31.86;32.96;;
78837;Laerm;72468;51.680;5.976;2024-01-11T01:44:56;32.39;31.26;34.16;;
78837;Laerm;72468;51.680;5.976;2024-01-11T01:48:57;32.4;31.93;32.93;;
78837;Laerm;72468;51.680;5.976;2024-01-11T01:52:56;32.53;29.86;38.76;;
78837;Laerm;72468;51.680;5.976;2024-01-11T01:56:56;32.4;31.87;32.95;;
78837;Laerm;72468;51.680;5.976;2024-01-11T02:00:56;32.41;31.86;32.85;;
78837;Laerm;72468;51.680;5.976;2024-01-11T02:04:56;32.41;31.93;32.92;;
78837;Laerm;72468;51.680;5.976;2024-01-11T02:08:56;32.41;31.57;32.96;;
78837;Laerm;72468;51.680;5.976;2024-01-11T02:12:56;32.41;31.73;32.88;;
78837;Laerm;72468;51.680;5.976;2024-01-11T02:16:56;32.42;31.79;32.97;;
78837;Laerm;72468;51.680;5.976;2024-01-11T02:20:56;32.4;31.78;32.97;;
78837;Laerm;72468;51.680;5.976;2024-01-11T02:24:56;32.41;31.85;32.86;;
78837;Laerm;72468;51.680;5.976;2024-01-11T02:28:56;32.42;31.79;33.34;;
78837;Laerm;72468;51.680;5.976;2024-01-11T02:32:56;32.42;31.9;33.94;;
78837;Laerm;72468;51.680;5.976;2024-01-11T02:36:56;32.4;31.77;32.98;;
78837;Laerm;72468;51.680;5.976;2024-01-11T02:40:56;32.41;31.89;32.86;;
78837;Laerm;72468;51.680;5.976;2024-01-11T02:44:56;32.51;30.42;37.41;;
78837;Laerm;72468;51.680;5.976;2024-01-11T02:48:56;32.42;31.88;33.03;;
78837;Laerm;72468;51.680;5.976;2024-01-11T02:52:56;32.44;31.44;34.17;;
78837;Laerm;72468;51.680;5.976;2024-01-11T02:56:56;32.74;29.85;38.75;;
78837;Laerm;72468;51.680;5.976;2024-01-11T03:00:56;32.42;31.82;33.09;;
78837;Laerm;72468;51.680;5.976;2024-01-11T03:04:56;32.42;31.59;33.11;;
78837;Laerm;72468;51.680;5.976;2024-01-11T03:08:58;32.41;31.31;33.8;;
78837;Laerm;72468;51.680;5.976;2024-01-11T03:12:57;32.41;31.69;33.13;;
78837;Laerm;72468;51.680;5.976;2024-01-11T03:16:56;32.43;31.78;34.66;;
78837;Laerm;72468;51.680;5.976;2024-01-11T03:20:56;32.39;31.6;33;;
78837;Laerm;72468;51.680;5.976;2024-01-11T03:24:56;32.38;31.71;32.87;;
78837;Laerm;72468;51.680;5.976;2024-01-11T03:28:56;32.54;30.81;38.72;;
78837;Laerm;72468;51.680;5.976;2024-01-11T03:32:56;32.4;31.88;33.52;;
78837;Laerm;72468;51.680;5.976;2024-01-11T03:36:56;32.4;31.78;32.93;;
78837;Laerm;72468;51.680;5.976;2024-01-11T03:40:58;32.38;31.87;32.93;;
78837;Laerm;72468;51.680;5.976;2024-01-11T03:48:56;32.37;31.75;32.97;;
78837;Laerm;72468;51.680;5.976;2024-01-11T03:52:56;32.56;29.11;41.98;;
78837;Laerm;72468;51.680;5.976;2024-01-11T03:56:56;32.42;31.59;34.86;;
78837;Laerm;72468;51.680;5.976;2024-01-11T04:00:56;32.37;31.68;32.91;;
78837;Laerm;72468;51.680;5.976;2024-01-11T04:04:56;32.39;31.03;33.93;;
78837;Laerm;72468;51.680;5.976;2024-01-11T04:08:56;32.4;31.67;36.22;;
78837;Laerm;72468;51.680;5.976;2024-01-11T04:12:56;32.37;31.58;33.66;;
78837;Laerm;72468;51.680;5.976;2024-01-11T04:16:56;32.62;31.5;43.29;;
78837;Laerm;72468;51.680;5.976;2024-01-11T04:20:56;32.73;31.54;41.06;;
78837;Laerm;72468;51.680;5.976;2024-01-11T04:24:56;32.55;31.36;38.76;;
78837;Laerm;72468;51.680;5.976;2024-01-11T04:28:56;32.41;31.27;33.79;;
78837;Laerm;72468;51.680;5.976;2024-01-11T04:32:56;32.49;30.7;34.8;;
78837;Laerm;72468;51.680;5.976;2024-01-11T04:36:56;32.95;29.13;44.28;;
78837;Laerm;72468;51.680;5.976;2024-01-11T04:40:56;32.36;31.69;33.16;;
78837;Laerm;72468;51.680;5.976;2024-01-11T04:44:56;32.45;30.85;36.58;;
78837;Laerm;72468;51.680;5.976;2024-01-11T04:48:56;32.65;30.2;38.14;;
78837;Laerm;72468;51.680;5.976;2024-01-11T04:52:56;32.44;30.96;36.52;;
78837;Laerm;72468;51.680;5.976;2024-01-11T04:56:56;33.09;31.67;47.1;;
78837;Laerm;72468;51.680;5.976;2024-01-11T05:00:56;32.6;31.5;38.19;;
78837;Laerm;72468;51.680;5.976;2024-01-11T05:04:56;32.64;30.15;37.14;;
78837;Laerm;72468;51.680;5.976;2024-01-11T05:08:56;32.71;31.37;43.77;;
78837;Laerm;72468;51.680;5.976;2024-01-11T05:12:56;32.52;30.43;38.7;;
78837;Laerm;72468;51.680;5.976;2024-01-11T05:16:56;32.71;31.22;39.58;;
78837;Laerm;72468;51.680;5.976;2024-01-11T05:20:56;32.65;30.7;38.97;;
78837;Laerm;72468;51.680;5.976;2024-01-11T05:24:56;32.59;30.59;37.63;;
78837;Laerm;72468;51.680;5.976;2024-01-11T05:28:56;32.53;31.04;38.79;;
78837;Laerm;72468;51.680;5.976;2024-01-11T05:32:56;32.97;29.72;41.14;;
78837;Laerm;72468;51.680;5.976;2024-01-11T05:36:56;32.57;30.69;37.2;;
78837;Laerm;72468;51.680;5.976;2024-01-11T05:40:56;32.42;31.45;35.76;;
78837;Laerm;72468;51.680;5.976;2024-01-11T05:44:56;32.71;30.58;40.4;;
78837;Laerm;72468;51.680;5.976;2024-01-11T05:48:56;32.54;30.61;37.1;;
78837;Laerm;72468;51.680;5.976;2024-01-11T05:52:56;32.55;30.76;39.98;;
78837;Laerm;72468;51.680;5.976;2024-01-11T05:56:56;32.7;30.38;41.52;;
78837;Laerm;72468;51.680;5.976;2024-01-11T06:00:56;32.78;30.81;42.85;;
78837;Laerm;72468;51.680;5.976;2024-01-11T06:04:56;33.5;31.21;47.77;;
78837;Laerm;72468;51.680;5.976;2024-01-11T06:08:56;32.73;29.72;43.07;;
78837;Laerm;72468;51.680;5.976;2024-01-11T06:12:56;32.8;31.15;45.81;;
78837;Laerm;72468;51.680;5.976;2024-01-11T06:16:56;33.12;28.93;44.76;;
78837;Laerm;72468;51.680;5.976;2024-01-11T06:20:56;32.93;29.78;41.82;;
78837;Laerm;72468;51.680;5.976;2024-01-11T06:24:56;33.25;29.28;43.64;;
78837;Laerm;72468;51.680;5.976;2024-01-11T06:28:56;32.59;29.93;35.81;;
78837;Laerm;72468;51.680;5.976;2024-01-11T06:32:56;32.59;30.54;37.72;;
78837;Laerm;72468;51.680;5.976;2024-01-11T06:36:56;33.34;30.1;45.45;;
78837;Laerm;72468;51.680;5.976;2024-01-11T06:40:56;32.72;30.18;37.92;;
78837;Laerm;72468;51.680;5.976;2024-01-11T06:44:56;32.81;30.27;43.7;;
78837;Laerm;72468;51.680;5.976;2024-01-11T06:48:56;32.68;30.59;42.79;;
78837;Laerm;72468;51.680;5.976;2024-01-11T06:52:56;33.06;30.65;47.82;;
78837;Laerm;72468;51.680;5.976;2024-01-11T06:56:56;33.07;30.91;44.91;;
78837;Laerm;72468;51.680;5.976;2024-01-11T07:00:56;32.8;30.21;39.57;;
78837;Laerm;72468;51.680;5.976;2024-01-11T07:04:56;32.72;29.55;40.4;;
78837;Laerm;72468;51.680;5.976;2024-01-11T07:08:56;32.55;30.69;36.04;;
78837;Laerm;72468;51.680;5.976;2024-01-11T07:12:56;32.82;30.57;42.23;;
78837;Laerm;72468;51.680;5.976;2024-01-11T07:16:56;33.48;29.9;46.71;;
78837;Laerm;72468;51.680;5.976;2024-01-11T07:20:56;33.33;30.01;45.74;;
78837;Laerm;72468;51.680;5.976;2024-01-11T07:24:56;33.32;30.4;45.61;;
78837;Laerm;72468;51.680;5.976;2024-01-11T07:28:56;32.9;30.92;43.29;;
78837;Laerm;72468;51.680;5.976;2024-01-11T07:32:56;32.86;29.89;41.41;;
78837;Laerm;72468;51.680;5.976;2024-01-11T07:36:56;32.99;30.63;44.59;;
78837;Laerm;72468;51.680;5.976;2024-01-11T07:40:56;32.74;30.61;37.29;;
78837;Laerm;72468;51.680;5.976;2024-01-11T07:44:56;32.96;31.41;43.01;;
78837;Laerm;72468;51.680;5.976;2024-01-11T07:48:56;32.78;30.19;41.18;;
78837;Laerm;72468;51.680;5.976;2024-01-11T07:52:56;32.84;30.66;46.32;;
78837;Laerm;72468;51.680;5.976;2024-01-11T07:56:56;33.25;31.09;43.79;;
78837;Laerm;72468;51.680;5.976;2024-01-11T08:00:56;33.37;29.89;46.64;;
78837;Laerm;72468;51.680;5.976;2024-01-11T08:04:56;33.07;30.47;45.09;;
78837;Laerm;72468;51.680;5.976;2024-01-11T08:08:56;33.66;30.51;47.08;;
78837;Laerm;72468;51.680;5.976;2024-01-11T08:12:56;33.98;30.52;48.94;;
78837;Laerm;72468;51.680;5.976;2024-01-11T08:16:56;32.91;30.84;41.71;;
78837;Laerm;72468;51.680;5.976;2024-01-11T08:20:56;33.17;31.05;41.09;;
78837;Laerm;72468;51.680;5.976;2024-01-11T08:24:56;33.22;30.53;45.5;;
78837;Laerm;72468;51.680;5.976;2024-01-11T08:28:56;33.35;30.19;45.35;;
78837;Laerm;72468;51.680;5.976;2024-01-11T08:32:56;34.21;29.97;49.37;;
78837;Laerm;72468;51.680;5.976;2024-01-11T08:36:56;33.75;29.96;46.4;;
78837;Laerm;72468;51.680;5.976;2024-01-11T08:40:56;33.84;32.02;44.78;;
78837;Laerm;72468;51.680;5.976;2024-01-11T08:44:56;33.56;31.55;44.8;;
78837;Laerm;72468;51.680;5.976;2024-01-11T08:48:56;34.29;31.25;44.67;;
78837;Laerm;72468;51.680;5.976;2024-01-11T08:52:56;33.58;32.03;40.15;;
78837;Laerm;72468;51.680;5.976;2024-01-11T08:56:56;33.85;31.62;44.61;;
78837;Laerm;72468;51.680;5.976;2024-01-11T09:00:56;33.54;31.8;38.9;;
78837;Laerm;72468;51.680;5.976;2024-01-11T09:04:56;33.64;31.18;38.58;;
78837;Laerm;72468;51.680;5.976;2024-01-11T09:08:56;33.53;32.12;43.51;;
78837;Laerm;72468;51.680;5.976;2024-01-11T09:12:56;33.62;31.99;39.38;;
78837;Laerm;72468;51.680;5.976;2024-01-11T09:16:56;33.89;31.68;41.86;;
78837;Laerm;72468;51.680;5.976;2024-01-11T09:20:56;33.71;31.92;46;;
78837;Laerm;72468;51.680;5.976;2024-01-11T09:24:56;33.71;31.84;42.29;;
78837;Laerm;72468;51.680;5.976;2024-01-11T09:28:56;34.23;32.02;45.96;;
78837;Laerm;72468;51.680;5.976;2024-01-11T09:32:56;33.84;32.17;46.72;;
78837;Laerm;72468;51.680;5.976;2024-01-11T09:36:56;33.66;30.55;40.93;;
78837;Laerm;72468;51.680;5.976;2024-01-11T09:41:02;34.91;32.05;51.54;;
78837;Laerm;72468;51.680;5.976;2024-01-11T09:44:56;33.58;32.08;40.12;;
78837;Laerm;72468;51.680;5.976;2024-01-11T09:48:57;33.98;31.9;46.08;;
78837;Laerm;72468;51.680;5.976;2024-01-11T09:52:56;33.73;31.45;41.85;;
78837;Laerm;72468;51.680;5.976;2024-01-11T09:56:59;33.99;30.52;42.14;;
78837;Laerm;72468;51.680;5.976;2024-01-11T10:00:56;33.75;30.96;38.66;;
78837;Laerm;72468;51.680;5.976;2024-01-11T10:04:56;33.89;31.27;47.82;;
78837;Laerm;72468;51.680;5.976;2024-01-11T10:08:56;33.93;31.11;50.52;;
78837;Laerm;72468;51.680;5.976;2024-01-11T10:12:56;33.68;31.73;43.95;;
78837;Laerm;72468;51.680;5.976;2024-01-11T10:16:56;34.39;31.57;48.25;;
78837;Laerm;72468;51.680;5.976;2024-01-11T10:20:57;33.72;31.55;42.16;;
78837;Laerm;72468;51.680;5.976;2024-01-11T10:25:08;33.64;30.93;39.54;;
78837;Laerm;72468;51.680;5.976;2024-01-11T10:28:59;33.36;31.86;41.55;;
78837;Laerm;72468;51.680;5.976;2024-01-11T10:32:57;33.6;31.35;46;;
78837;Laerm;72468;51.680;5.976;2024-01-11T10:36:56;34.19;31.29;45.31;;
78837;Laerm;72468;51.680;5.976;2024-01-11T10:40:56;33.72;32.13;44.54;;
78837;Laerm;72468;51.680;5.976;2024-01-11T10:44:59;33.79;31.49;42.57;;
78837;Laerm;72468;51.680;5.976;2024-01-11T10:48:56;33.23;31.84;36.45;;
78837;Laerm;72468;51.680;5.976;2024-01-11T10:53:04;33.22;30.64;37.79;;
78837;Laerm;72468;51.680;5.976;2024-01-11T10:56:57;33.45;31.63;39.65;;
78837;Laerm;72468;51.680;5.976;2024-01-11T11:00:56;33.44;31.77;43.42;;
78837;Laerm;72468;51.680;5.976;2024-01-11T11:04:56;34.05;30.32;44.7;;
78837;Laerm;72468;51.680;5.976;2024-01-11T11:08:56;33.58;31.69;38.9;;
78837;Laerm;72468;51.680;5.976;2024-01-11T11:12:56;35.58;31.32;47.86;;
78837;Laerm;72468;51.680;5.976;2024-01-11T11:16:56;37.99;33.51;49.17;;
78837;Laerm;72468;51.680;5.976;2024-01-11T11:20:56;37.78;31.59;58.28;;
78837;Laerm;72468;51.680;5.976;2024-01-11T11:25:03;36.05;32.07;48.93;;
78837;Laerm;72468;51.680;5.976;2024-01-11T11:28:56;33.91;31.74;49.69;;
78837;Laerm;72468;51.680;5.976;2024-01-11T11:32:56;33.41;31.48;46.1;;
78837;Laerm;72468;51.680;5.976;2024-01-11T11:36:56;33.51;31.17;42.77;;
78837;Laerm;72468;51.680;5.976;2024-01-11T11:40:57;34.13;30.64;47.17;;
78837;Laerm;72468;51.680;5.976;2024-01-11T11:44:56;33.33;31.28;40.04;;
78837;Laerm;72468;51.680;5.976;2024-01-11T11:48:56;33.19;30.96;35.43;;
78837;Laerm;72468;51.680;5.976;2024-01-11T11:52:56;33.2;31.59;36.51;;
78837;Laerm;72468;51.680;5.976;2024-01-11T11:56:56;33.49;31.1;43.27;;
78837;Laerm;72468;51.680;5.976;2024-01-11T12:00:57;34.15;30.52;52.4;;
78837;Laerm;72468;51.680;5.976;2024-01-11T12:04:56;33.46;31.69;46.32;;
78837;Laerm;72468;51.680;5.976;2024-01-11T12:08:56;33.37;31.4;43.17;;
78837;Laerm;72468;51.680;5.976;2024-01-11T12:12:56;33.91;30.77;45.36;;
78837;Laerm;72468;51.680;5.976;2024-01-11T12:16:56;33.95;31.34;43.28;;
78837;Laerm;72468;51.680;5.976;2024-01-11T12:20:56;33.93;31.11;46.61;;
78837;Laerm;72468;51.680;5.976;2024-01-11T12:24:56;34.02;31.73;39.92;;
78837;Laerm;72468;51.680;5.976;2024-01-11T12:28:56;33.52;31.72;37.71;;
78837;Laerm;72468;51.680;5.976;2024-01-11T12:32:56;34.25;30.45;46.12;;
78837;Laerm;72468;51.680;5.976;2024-01-11T12:36:56;33.62;31.21;40.58;;
78837;Laerm;72468;51.680;5.976;2024-01-11T12:40:56;33.27;31.89;35.42;;
78837;Laerm;72468;51.680;5.976;2024-01-11T12:44:56;33.25;31.69;39.19;;
78837;Laerm;72468;51.680;5.976;2024-01-11T12:48:56;33.32;31.26;38.59;;
78837;Laerm;72468;51.680;5.976;2024-01-11T12:53:12;34.27;31.24;46.98;;
78837;Laerm;72468;51.680;5.976;2024-01-11T12:56:56;33.31;30.77;42.21;;
78837;Laerm;72468;51.680;5.976;2024-01-11T13:00:56;33.48;30.56;45.72;;
78837;Laerm;72468;51.680;5.976;2024-01-11T13:04:56;33.17;29.79;39.59;;
78837;Laerm;72468;51.680;5.976;2024-01-11T13:08:56;33.03;30.01;42.55;;
78837;Laerm;72468;51.680;5.976;2024-01-11T13:12:57;32.86;30.41;36.27;;
78837;Laerm;72468;51.680;5.976;2024-01-11T13:16:56;33.86;30.3;48.2;;
78837;Laerm;72468;51.680;5.976;2024-01-11T13:20:56;32.78;30.82;39.2;;
78837;Laerm;72468;51.680;5.976;2024-01-11T13:24:56;33.18;30.35;47.14;;
78837;Laerm;72468;51.680;5.976;2024-01-11T13:28:56;33.14;30.05;44.63;;
78837;Laerm;72468;51.680;5.976;2024-01-11T13:32:56;33.18;30.95;45.98;;
78837;Laerm;72468;51.680;5.976;2024-01-11T13:36:56;32.82;30.6;44.52;;
78837;Laerm;72468;51.680;5.976;2024-01-11T13:40:56;33.12;31.37;47.9;;
78837;Laerm;72468;51.680;5.976;2024-01-11T13:44:56;32.81;31.41;38.28;;
78837;Laerm;72468;51.680;5.976;2024-01-11T13:48:56;32.81;31.27;40.86;;
78837;Laerm;72468;51.680;5.976;2024-01-11T13:52:56;33.34;30.08;44.2;;
78837;Laerm;72468;51.680;5.976;2024-01-11T13:56:56;32.91;30.84;42.61;;
78837;Laerm;72468;51.680;5.976;2024-01-11T14:00:56;32.98;31.36;43.48;;
78837;Laerm;72468;51.680;5.976;2024-01-11T14:04:56;34.43;29.48;50.07;;
78837;Laerm;72468;51.680;5.976;2024-01-11T14:08:56;32.73;31.41;37.21;;
78837;Laerm;72468;51.680;5.976;2024-01-11T14:12:56;33.15;31.03;41.56;;
78837;Laerm;72468;51.680;5.976;2024-01-11T14:16:56;32.7;30.84;35.52;;
78837;Laerm;72468;51.680;5.976;2024-01-11T14:20:56;33.3;30.57;44.45;;
78837;Laerm;72468;51.680;5.976;2024-01-11T14:24:56;33.21;31;45.07;;
78837;Laerm;72468;51.680;5.976;2024-01-11T14:28:56;32.73;30.92;39.4;;
78837;Laerm;72468;51.680;5.976;2024-01-11T14:32:56;32.61;31.44;41.4;;
78837;Laerm;72468;51.680;5.976;2024-01-11T14:36:56;33.38;30.15;44.53;;
78837;Laerm;72468;51.680;5.976;2024-01-11T14:40:56;34.47;29.24;49.39;;
78837;Laerm;72468;51.680;5.976;2024-01-11T14:44:56;33.59;31.29;47.97;;
78837;Laerm;72468;51.680;5.976;2024-01-11T14:48:56;32.74;29.6;38.88;;
78837;Laerm;72468;51.680;5.976;2024-01-11T14:52:56;32.91;30.02;42.04;;
78837;Laerm;72468;51.680;5.976;2024-01-11T14:56:56;33.43;29.17;46.26;;
78837;Laerm;72468;51.680;5.976;2024-01-11T15:00:56;32.59;31.45;36.52;;
78837;Laerm;72468;51.680;5.976;2024-01-11T15:04:56;32.88;30.78;40.97;;
78837;Laerm;72468;51.680;5.976;2024-01-11T15:08:56;32.93;30.54;40.32;;
78837;Laerm;72468;51.680;5.976;2024-01-11T15:12:56;33.16;29.34;47.21;;
78837;Laerm;72468;51.680;5.976;2024-01-11T15:16:56;32.54;30.31;35.95;;
78837;Laerm;72468;51.680;5.976;2024-01-11T15:20:56;32.63;30.14;36.53;;
78837;Laerm;72468;51.680;5.976;2024-01-11T15:24:56;32.54;30.52;35.71;;
78837;Laerm;72468;51.680;5.976;2024-01-11T15:28:56;32.79;31.26;40.98;;
78837;Laerm;72468;51.680;5.976;2024-01-11T15:32:56;32.68;30.39;36.77;;
78837;Laerm;72468;51.680;5.976;2024-01-11T15:36:56;32.64;30.51;36.02;;
78837;Laerm;72468;51.680;5.976;2024-01-11T15:40:56;32.7;30.32;37.48;;
78837;Laerm;72468;51.680;5.976;2024-01-11T15:44:56;32.64;30.21;40.22;;
78837;Laerm;72468;51.680;5.976;2024-01-11T15:48:56;32.75;30.69;46.09;;
78837;Laerm;72468;51.680;5.976;2024-01-11T15:52:56;32.57;30.88;37.43;;
78837;Laerm;72468;51.680;5.976;2024-01-11T15:56:56;32.6;30.99;44.31;;
78837;Laerm;72468;51.680;5.976;2024-01-11T16:00:56;32.81;30.39;40.19;;
78837;Laerm;72468;51.680;5.976;2024-01-11T16:04:56;33.18;30.83;43.61;;
78837;Laerm;72468;51.680;5.976;2024-01-11T16:08:56;32.85;30.56;45.01;;
78837;Laerm;72468;51.680;5.976;2024-01-11T16:12:56;33;31.02;45.92;;
78837;Laerm;72468;51.680;5.976;2024-01-11T16:16:56;32.85;31.29;40.26;;
78837;Laerm;72468;51.680;5.976;2024-01-11T16:20:56;32.95;30.01;40.37;;
78837;Laerm;72468;51.680;5.976;2024-01-11T16:24:56;32.54;31.26;43.57;;
78837;Laerm;72468;51.680;5.976;2024-01-11T16:28:56;32.93;30.75;45.6;;
78837;Laerm;72468;51.680;5.976;2024-01-11T16:32:56;32.46;30.54;34.86;;
78837;Laerm;72468;51.680;5.976;2024-01-11T16:36:56;33.34;30.01;46.36;;
78837;Laerm;72468;51.680;5.976;2024-01-11T16:40:56;40.65;31.02;64.54;;
78837;Laerm;72468;51.680;5.976;2024-01-11T16:44:56;38.27;30.48;64.21;;
78837;Laerm;72468;51.680;5.976;2024-01-11T16:48:56;33.97;31.18;53.95;;
78837;Laerm;72468;51.680;5.976;2024-01-11T16:52:56;33.5;30.35;45.53;;
78837;Laerm;72468;51.680;5.976;2024-01-11T16:56:56;33.74;31.28;46.84;;
78837;Laerm;72468;51.680;5.976;2024-01-11T17:00:56;33.48;31.17;46.31;;
78837;Laerm;72468;51.680;5.976;2024-01-11T17:04:56;34.06;31.59;49.05;;
78837;Laerm;72468;51.680;5.976;2024-01-11T17:08:56;33.15;30.85;42.14;;
78837;Laerm;72468;51.680;5.976;2024-01-11T17:12:56;33.13;30.97;45.43;;
78837;Laerm;72468;51.680;5.976;2024-01-11T17:16:56;33.22;31.31;43.44;;
78837;Laerm;72468;51.680;5.976;2024-01-11T17:20:56;33.44;31.04;43.79;;
78837;Laerm;72468;51.680;5.976;2024-01-11T17:24:56;34.06;29.97;51.59;;
78837;Laerm;72468;51.680;5.976;2024-01-11T17:28:56;33.26;31.8;48.28;;
78837;Laerm;72468;51.680;5.976;2024-01-11T17:32:56;33.12;30.69;40.84;;
78837;Laerm;72468;51.680;5.976;2024-01-11T17:36:56;32.71;31.76;45.41;;
78837;Laerm;72468;51.680;5.976;2024-01-11T17:40:56;32.61;31.46;40.6;;
78837;Laerm;72468;51.680;5.976;2024-01-11T17:44:56;32.64;31.77;45.73;;
78837;Laerm;72468;51.680;5.976;2024-01-11T17:48:56;32.52;31.55;37.36;;
78837;Laerm;72468;51.680;5.976;2024-01-11T17:52:56;32.5;30.27;34.27;;
78837;Laerm;72468;51.680;5.976;2024-01-11T17:56:56;32.56;31.51;36.2;;
78837;Laerm;72468;51.680;5.976;2024-01-11T18:00:56;32.65;30.94;37.38;;
78837;Laerm;72468;51.680;5.976;2024-01-11T18:04:56;32.44;30.65;38.91;;
78837;Laerm;72468;51.680;5.976;2024-01-11T18:08:56;32.44;30.85;34.86;;
78837;Laerm;72468;51.680;5.976;2024-01-11T18:12:56;32.52;31.83;36.7;;
78837;Laerm;72468;51.680;5.976;2024-01-11T18:16:56;32.43;31.02;35.53;;
78837;Laerm;72468;51.680;5.976;2024-01-11T18:20:56;32.52;30.69;36.33;;
78837;Laerm;72468;51.680;5.976;2024-01-11T18:24:56;32.4;31.49;33.73;;
78837;Laerm;72468;51.680;5.976;2024-01-11T18:28:56;32.84;30.59;43.73;;
78837;Laerm;72468;51.680;5.976;2024-01-11T18:32:56;32.55;30.78;41.74;;
78837;Laerm;72468;51.680;5.976;2024-01-11T18:36:56;32.55;31.32;44.75;;
78837;Laerm;72468;51.680;5.976;2024-01-11T18:40:56;32.36;31.47;34.53;;
78837;Laerm;72468;51.680;5.976;2024-01-11T18:44:56;32.38;31.19;34.66;;
78837;Laerm;72468;51.680;5.976;2024-01-11T18:48:56;32.43;30.78;35.79;;
78837;Laerm;72468;51.680;5.976;2024-01-11T18:52:56;32.51;31.44;35.65;;
78837;Laerm;72468;51.680;5.976;2024-01-11T18:56:56;32.63;31.2;45.81;;
78837;Laerm;72468;51.680;5.976;2024-01-11T19:00:56;32.49;30.44;38.94;;
78837;Laerm;72468;51.680;5.976;2024-01-11T19:04:56;32.4;31.51;35.48;;
78837;Laerm;72468;51.680;5.976;2024-01-11T19:08:56;32.37;31.53;35.99;;
78837;Laerm;72468;51.680;5.976;2024-01-11T19:12:56;32.63;31.44;39.92;;
78837;Laerm;72468;51.680;5.976;2024-01-11T19:16:57;32.32;31.63;32.91;;
78837;Laerm;72468;51.680;5.976;2024-01-11T19:20:56;32.39;31.05;35.23;;
78837;Laerm;72468;51.680;5.976;2024-01-11T19:24:56;32.41;31.1;35.43;;
78837;Laerm;72468;51.680;5.976;2024-01-11T19:28:56;32.59;31.15;41.59;;
78837;Laerm;72468;51.680;5.976;2024-01-11T19:32:56;32.37;31.76;33.95;;
78837;Laerm;72468;51.680;5.976;2024-01-11T19:36:56;32.36;31.35;34.03;;
78837;Laerm;72468;51.680;5.976;2024-01-11T19:40:56;32.44;31.45;40.06;;
78837;Laerm;72468;51.680;5.976;2024-01-11T19:44:56;32.56;29.81;39.15;;
78837;Laerm;72468;51.680;5.976;2024-01-11T19:48:56;32.37;31.74;33.65;;
78837;Laerm;72468;51.680;5.976;2024-01-11T19:52:56;32.36;31.74;33.51;;
78837;Laerm;72468;51.680;5.976;2024-01-11T19:56:56;32.54;30.64;38.21;;
78837;Laerm;72468;51.680;5.976;2024-01-11T20:00:56;32.42;31.18;36;;
78837;Laerm;72468;51.680;5.976;2024-01-11T20:04:56;32.55;31.04;43.32;;
78837;Laerm;72468;51.680;5.976;2024-01-11T20:08:56;32.4;31.67;34.71;;
78837;Laerm;72468;51.680;5.976;2024-01-11T20:12:56;32.46;31.08;36.35;;
78837;Laerm;72468;51.680;5.976;2024-01-11T20:16:56;32.66;31.26;41.59;;
78837;Laerm;72468;51.680;5.976;2024-01-11T20:20:56;32.86;31.39;44.56;;
78837;Laerm;72468;51.680;5.976;2024-01-11T20:24:56;33.17;31.06;42.5;;
78837;Laerm;72468;51.680;5.976;2024-01-11T20:28:56;33.02;31.13;46.88;;
78837;Laerm;72468;51.680;5.976;2024-01-11T20:32:56;32.5;30.65;35.1;;
78837;Laerm;72468;51.680;5.976;2024-01-11T20:36:56;32.45;31.16;36.72;;
78837;Laerm;72468;51.680;5.976;2024-01-11T20:40:56;32.48;30.09;35.74;;
78837;Laerm;72468;51.680;5.976;2024-01-11T20:44:56;32.66;31.75;40.51;;
78837;Laerm;72468;51.680;5.976;2024-01-11T20:48:56;32.4;30.6;33.61;;
78837;Laerm;72468;51.680;5.976;2024-01-11T20:52:56;32.42;30.95;34.04;;
78837;Laerm;72468;51.680;5.976;2024-01-11T20:56:56;32.37;31.64;34.41;;
78837;Laerm;72468;51.680;5.976;2024-01-11T21:00:56;32.38;30.96;35.74;;
78837;Laerm;72468;51.680;5.976;2024-01-11T21:04:56;32.39;31.65;34.42;;
78837;Laerm;72468;51.680;5.976;2024-01-11T21:08:56;32.47;30.14;34.87;;
78837;Laerm;72468;51.680;5.976;2024-01-11T21:12:56;32.42;30.73;37.49;;
78837;Laerm;72468;51.680;5.976;2024-01-11T21:16:56;32.36;31.49;33.15;;
78837;Laerm;72468;51.680;5.976;2024-01-11T21:20:56;32.37;31.82;32.99;;
78837;Laerm;72468;51.680;5.976;2024-01-11T21:24:56;32.43;30.77;37.09;;
78837;Laerm;72468;51.680;5.976;2024-01-11T21:28:56;32.39;31.37;33.75;;
78837;Laerm;72468;51.680;5.976;2024-01-11T21:32:56;32.39;31.72;33.23;;
78837;Laerm;72468;51.680;5.976;2024-01-11T21:36:56;32.4;31.13;34.37;;
78837;Laerm;72468;51.680;5.976;2024-01-11T21:40:56;32.4;31.26;33.89;;
78837;Laerm;72468;51.680;5.976;2024-01-11T21:44:56;32.4;31.11;34.09;;
78837;Laerm;72468;51.680;5.976;2024-01-11T21:48:56;32.42;31.05;33.68;;
78837;Laerm;72468;51.680;5.976;2024-01-11T21:52:56;32.58;29.68;40.84;;
78837;Laerm;72468;51.680;5.976;2024-01-11T21:56:56;32.71;30.34;41.02;;
78837;Laerm;72468;51.680;5.976;2024-01-11T22:00:56;32.45;31.78;34.8;;
78837;Laerm;72468;51.680;5.976;2024-01-11T22:04:56;32.37;31.78;32.81;;
78837;Laerm;72468;51.680;5.976;2024-01-11T22:08:56;32.45;31.73;35.39;;
78837;Laerm;72468;51.680;5.976;2024-01-11T22:12:56;32.37;31.85;32.92;;
78837;Laerm;72468;51.680;5.976;2024-01-11T22:16:56;32.37;31.84;32.94;;
78837;Laerm;72468;51.680;5.976;2024-01-11T22:20:56;32.36;31.83;32.85;;
78837;Laerm;72468;51.680;5.976;2024-01-11T22:24:56;32.37;31.64;33.14;;
78837;Laerm;72468;51.680;5.976;2024-01-11T22:28:56;32.37;31.81;33.05;;
78837;Laerm;72468;51.680;5.976;2024-01-11T22:32:56;32.48;31.64;37.51;;